sensor_id;sensor_type;location;lat;lon;timestamp;temperature;humidity
78886;DHT22;68269;52.514;5.722;2023-04-01T00:01:51;11.10;72.00
78886;DHT22;68269;52.514;5.722;2023-04-01T00:04:20;11.10;72.00
78886;DHT22;68269;52.514;5.722;2023-04-01T00:06:49;11.10;72.00
78886;DHT22;68269;52.514;5.722;2023-04-01T00:09:21;11.10;72.10
78886;DHT22;68269;52.514;5.722;2023-04-01T00:11:51;11.10;72.10
78886;DHT22;68269;52.514;5.722;2023-04-01T00:14:20;11.10;72.10
78886;DHT22;68269;52.514;5.722;2023-04-01T00:16:49;11.10;72.10
78886;DHT22;68269;52.514;5.722;2023-04-01T00:19:18;11.10;72.10
78886;DHT22;68269;52.514;5.722;2023-04-01T00:21:48;11.10;72.10
78886;DHT22;68269;52.514;5.722;2023-04-01T00:24:21;11.10;72.10
78886;DHT22;68269;52.514;5.722;2023-04-01T00:26:50;11.10;72.10
78886;DHT22;68269;52.514;5.722;2023-04-01T00:29:19;11.10;72.10
78886;DHT22;68269;52.514;5.722;2023-04-01T00:31:50;11.10;72.10
78886;DHT22;68269;52.514;5.722;2023-04-01T00:34:19;11.10;72.10
78886;DHT22;68269;52.514;5.722;2023-04-01T00:36:48;11.10;72.20
78886;DHT22;68269;52.514;5.722;2023-04-01T00:39:21;11.10;72.10
78886;DHT22;68269;52.514;5.722;2023-04-01T00:41:50;11.10;72.20
78886;DHT22;68269;52.514;5.722;2023-04-01T00:44:22;11.10;72.20
78886;DHT22;68269;52.514;5.722;2023-04-01T00:46:52;11.10;72.20
78886;DHT22;68269;52.514;5.722;2023-04-01T00:49:23;11.10;72.20
78886;DHT22;68269;52.514;5.722;2023-04-01T00:51:56;11.10;72.20
78886;DHT22;68269;52.514;5.722;2023-04-01T00:54:30;11.10;72.20
78886;DHT22;68269;52.514;5.722;2023-04-01T00:57:02;11.10;72.20
78886;DHT22;68269;52.514;5.722;2023-04-01T00:59:35;11.10;72.20
78886;DHT22;68269;52.514;5.722;2023-04-01T01:02:09;11.10;72.20
78886;DHT22;68269;52.514;5.722;2023-04-01T01:04:39;11.10;72.20
78886;DHT22;68269;52.514;5.722;2023-04-01T01:07:17;11.10;72.20
78886;DHT22;68269;52.514;5.722;2023-04-01T01:09:57;11.10;72.30
78886;DHT22;68269;52.514;5.722;2023-04-01T01:12:31;11.20;72.30
78886;DHT22;68269;52.514;5.722;2023-04-01T01:15:09;11.10;72.30
78886;DHT22;68269;52.514;5.722;2023-04-01T01:17:48;11.10;72.30
78886;DHT22;68269;52.514;5.722;2023-04-01T01:23:40;11.10;72.30
78886;DHT22;68269;52.514;5.722;2023-04-01T01:26:34;11.10;72.30
78886;DHT22;68269;52.514;5.722;2023-04-01T01:29:15;11.10;72.30
78886;DHT22;68269;52.514;5.722;2023-04-01T01:31:55;11.10;72.30
78886;DHT22;68269;52.514;5.722;2023-04-01T01:34:32;11.10;72.30
78886;DHT22;68269;52.514;5.722;2023-04-01T01:37:11;11.10;72.30
78886;DHT22;68269;52.514;5.722;2023-04-01T01:39:44;11.10;72.30
78886;DHT22;68269;52.514;5.722;2023-04-01T01:42:17;11.10;72.40
78886;DHT22;68269;52.514;5.722;2023-04-01T01:44:49;11.10;72.30
78886;DHT22;68269;52.514;5.722;2023-04-01T01:47:20;11.10;72.40
78886;DHT22;68269;52.514;5.722;2023-04-01T01:49:51;11.10;72.40
78886;DHT22;68269;52.514;5.722;2023-04-01T01:52:26;11.10;72.40
78886;DHT22;68269;52.514;5.722;2023-04-01T01:54:58;11.10;72.50
78886;DHT22;68269;52.514;5.722;2023-04-01T01:57:38;11.10;72.50
78886;DHT22;68269;52.514;5.722;2023-04-01T02:00:15;11.10;72.50
78886;DHT22;68269;52.514;5.722;2023-04-01T02:02:47;11.10;72.50
78886;DHT22;68269;52.514;5.722;2023-04-01T02:05:20;11.10;72.40
78886;DHT22;68269;52.514;5.722;2023-04-01T02:07:57;11.10;72.40
78886;DHT22;68269;52.514;5.722;2023-04-01T02:10:29;11.10;72.40
78886;DHT22;68269;52.514;5.722;2023-04-01T02:13:05;11.10;72.40
78886;DHT22;68269;52.514;5.722;2023-04-01T02:15:40;11.00;72.50
78886;DHT22;68269;52.514;5.722;2023-04-01T02:18:12;11.00;72.50
78886;DHT22;68269;52.514;5.722;2023-04-01T02:20:43;11.00;72.40
78886;DHT22;68269;52.514;5.722;2023-04-01T02:23:16;11.00;72.40
78886;DHT22;68269;52.514;5.722;2023-04-01T02:25:45;11.00;72.50
78886;DHT22;68269;52.514;5.722;2023-04-01T02:28:18;11.00;72.50
78886;DHT22;68269;52.514;5.722;2023-04-01T02:30:49;11.00;72.50
78886;DHT22;68269;52.514;5.722;2023-04-01T02:33:19;11.00;72.50
78886;DHT22;68269;52.514;5.722;2023-04-01T02:35:50;11.00;72.50
78886;DHT22;68269;52.514;5.722;2023-04-01T02:38:22;11.00;72.50
78886;DHT22;68269;52.514;5.722;2023-04-01T02:40:57;11.00;72.50
78886;DHT22;68269;52.514;5.722;2023-04-01T02:43:27;11.00;72.50
78886;DHT22;68269;52.514;5.722;2023-04-01T02:45:56;11.00;72.50
78886;DHT22;68269;52.514;5.722;2023-04-01T02:48:25;11.00;72.50
78886;DHT22;68269;52.514;5.722;2023-04-01T02:50:55;11.00;72.50
78886;DHT22;68269;52.514;5.722;2023-04-01T02:53:27;11.00;72.50
78886;DHT22;68269;52.514;5.722;2023-04-01T02:55:56;11.00;72.50
78886;DHT22;68269;52.514;5.722;2023-04-01T02:58:26;11.00;72.50
78886;DHT22;68269;52.514;5.722;2023-04-01T03:00:55;11.00;72.50
78886;DHT22;68269;52.514;5.722;2023-04-01T03:03:24;11.00;72.60
78886;DHT22;68269;52.514;5.722;2023-04-01T03:05:54;11.00;72.60
78886;DHT22;68269;52.514;5.722;2023-04-01T03:08:28;11.00;72.60
78886;DHT22;68269;52.514;5.722;2023-04-01T03:10:58;11.00;72.60
78886;DHT22;68269;52.514;5.722;2023-04-01T03:13:28;11.00;72.50
78886;DHT22;68269;52.514;5.722;2023-04-01T03:15:57;11.00;72.50
78886;DHT22;68269;52.514;5.722;2023-04-01T03:18:27;11.00;72.60
78886;DHT22;68269;52.514;5.722;2023-04-01T03:20:57;11.00;72.50
78886;DHT22;68269;52.514;5.722;2023-04-01T03:23:29;11.00;72.60
78886;DHT22;68269;52.514;5.722;2023-04-01T03:25:58;11.00;72.60
78886;DHT22;68269;52.514;5.722;2023-04-01T03:28:27;11.00;72.50
78886;DHT22;68269;52.514;5.722;2023-04-01T03:30:57;11.00;72.60
78886;DHT22;68269;52.514;5.722;2023-04-01T03:33:26;11.00;72.60
78886;DHT22;68269;52.514;5.722;2023-04-01T03:35:55;11.00;72.60
78886;DHT22;68269;52.514;5.722;2023-04-01T03:38:25;11.00;72.60
78886;DHT22;68269;52.514;5.722;2023-04-01T03:40:57;11.00;72.60
78886;DHT22;68269;52.514;5.722;2023-04-01T03:43:26;11.00;72.60
78886;DHT22;68269;52.514;5.722;2023-04-01T03:45:56;11.00;72.60
78886;DHT22;68269;52.514;5.722;2023-04-01T03:48:26;11.00;72.60
78886;DHT22;68269;52.514;5.722;2023-04-01T03:50:55;11.00;72.60
78886;DHT22;68269;52.514;5.722;2023-04-01T03:53:25;11.00;72.60
78886;DHT22;68269;52.514;5.722;2023-04-01T03:56:03;11.00;72.60
78886;DHT22;68269;52.514;5.722;2023-04-01T03:58:35;11.00;72.60
78886;DHT22;68269;52.514;5.722;2023-04-01T04:01:18;11.00;72.60
78886;DHT22;68269;52.514;5.722;2023-04-01T04:03:50;11.00;72.60
78886;DHT22;68269;52.514;5.722;2023-04-01T04:06:19;11.00;72.60
78886;DHT22;68269;52.514;5.722;2023-04-01T04:08:49;11.00;72.60
78886;DHT22;68269;52.514;5.722;2023-04-01T04:11:21;11.00;72.60
78886;DHT22;68269;52.514;5.722;2023-04-01T04:13:53;11.00;72.70
78886;DHT22;68269;52.514;5.722;2023-04-01T04:16:22;11.00;72.70
78886;DHT22;68269;52.514;5.722;2023-04-01T04:18:58;11.00;72.70
78886;DHT22;68269;52.514;5.722;2023-04-01T04:21:28;11.00;72.70
78886;DHT22;68269;52.514;5.722;2023-04-01T04:23:58;11.00;72.70
78886;DHT22;68269;52.514;5.722;2023-04-01T04:26:36;11.00;72.70
78886;DHT22;68269;52.514;5.722;2023-04-01T04:29:05;11.00;72.70
78886;DHT22;68269;52.514;5.722;2023-04-01T04:31:35;11.00;72.70
78886;DHT22;68269;52.514;5.722;2023-04-01T04:34:04;11.00;72.70
78886;DHT22;68269;52.514;5.722;2023-04-01T04:36:35;11.00;72.70
78886;DHT22;68269;52.514;5.722;2023-04-01T04:39:05;11.00;72.70
78886;DHT22;68269;52.514;5.722;2023-04-01T04:41:41;11.00;72.70
78886;DHT22;68269;52.514;5.722;2023-04-01T04:44:11;11.00;72.70
78886;DHT22;68269;52.514;5.722;2023-04-01T04:46:40;11.00;72.80
78886;DHT22;68269;52.514;5.722;2023-04-01T04:49:14;11.00;72.80
78886;DHT22;68269;52.514;5.722;2023-04-01T04:51:44;11.00;72.80
78886;DHT22;68269;52.514;5.722;2023-04-01T04:54:15;11.00;72.80
78886;DHT22;68269;52.514;5.722;2023-04-01T04:56:54;11.00;72.80
78886;DHT22;68269;52.514;5.722;2023-04-01T04:59:25;11.00;72.80
78886;DHT22;68269;52.514;5.722;2023-04-01T05:02:03;11.00;72.80
78886;DHT22;68269;52.514;5.722;2023-04-01T05:04:35;11.00;72.80
78886;DHT22;68269;52.514;5.722;2023-04-01T05:07:07;11.00;72.80
78886;DHT22;68269;52.514;5.722;2023-04-01T05:09:36;11.00;72.80
78886;DHT22;68269;52.514;5.722;2023-04-01T05:12:08;10.90;72.80
78886;DHT22;68269;52.514;5.722;2023-04-01T05:14:55;10.90;72.90
78886;DHT22;68269;52.514;5.722;2023-04-01T05:17:24;10.90;72.90
78886;DHT22;68269;52.514;5.722;2023-04-01T05:19:54;10.90;72.80
78886;DHT22;68269;52.514;5.722;2023-04-01T05:22:23;10.90;72.90
78886;DHT22;68269;52.514;5.722;2023-04-01T05:24:53;10.90;72.80
78886;DHT22;68269;52.514;5.722;2023-04-01T05:27:25;10.90;72.80
78886;DHT22;68269;52.514;5.722;2023-04-01T05:29:54;10.90;72.90
78886;DHT22;68269;52.514;5.722;2023-04-01T05:32:49;10.90;72.90
78886;DHT22;68269;52.514;5.722;2023-04-01T05:35:19;10.90;72.90
78886;DHT22;68269;52.514;5.722;2023-04-01T05:37:48;10.90;72.90
78886;DHT22;68269;52.514;5.722;2023-04-01T05:40:18;10.90;72.80
78886;DHT22;68269;52.514;5.722;2023-04-01T05:42:50;10.90;72.90
78886;DHT22;68269;52.514;5.722;2023-04-01T05:45:19;11.00;72.90
78886;DHT22;68269;52.514;5.722;2023-04-01T05:48:15;10.90;72.90
78886;DHT22;68269;52.514;5.722;2023-04-01T05:50:44;10.90;72.90
78886;DHT22;68269;52.514;5.722;2023-04-01T05:53:13;10.90;72.90
78886;DHT22;68269;52.514;5.722;2023-04-01T05:55:43;10.90;72.90
78886;DHT22;68269;52.514;5.722;2023-04-01T05:58:19;11.00;72.90
78886;DHT22;68269;52.514;5.722;2023-04-01T06:00:49;11.00;72.90
78886;DHT22;68269;52.514;5.722;2023-04-01T06:03:18;11.00;72.90
78886;DHT22;68269;52.514;5.722;2023-04-01T06:05:47;11.00;72.90
78886;DHT22;68269;52.514;5.722;2023-04-01T06:08:18;11.00;72.90
78886;DHT22;68269;52.514;5.722;2023-04-01T06:10:59;11.00;72.90
78886;DHT22;68269;52.514;5.722;2023-04-01T06:13:47;11.00;72.90
78886;DHT22;68269;52.514;5.722;2023-04-01T06:16:27;11.00;72.90
78886;DHT22;68269;52.514;5.722;2023-04-01T06:19:09;11.00;73.00
78886;DHT22;68269;52.514;5.722;2023-04-01T06:22:03;11.00;72.90
78886;DHT22;68269;52.514;5.722;2023-04-01T06:24:58;11.00;72.90
78886;DHT22;68269;52.514;5.722;2023-04-01T06:28:04;11.00;72.90
78886;DHT22;68269;52.514;5.722;2023-04-01T06:30:41;11.00;72.90
78886;DHT22;68269;52.514;5.722;2023-04-01T06:33:35;11.00;72.90
78886;DHT22;68269;52.514;5.722;2023-04-01T06:36:31;11.00;72.90
78886;DHT22;68269;52.514;5.722;2023-04-01T06:39:21;11.00;72.90
78886;DHT22;68269;52.514;5.722;2023-04-01T06:42:22;11.10;72.90
78886;DHT22;68269;52.514;5.722;2023-04-01T06:45:01;11.00;72.90
78886;DHT22;68269;52.514;5.722;2023-04-01T06:48:08;11.10;72.90
78886;DHT22;68269;52.514;5.722;2023-04-01T06:51:06;11.10;72.90
78886;DHT22;68269;52.514;5.722;2023-04-01T06:54:11;11.10;72.90
78886;DHT22;68269;52.514;5.722;2023-04-01T06:57:03;11.10;72.90
78886;DHT22;68269;52.514;5.722;2023-04-01T06:59:37;11.10;72.90
78886;DHT22;68269;52.514;5.722;2023-04-01T07:02:18;11.10;72.90
78886;DHT22;68269;52.514;5.722;2023-04-01T07:04:55;11.10;72.90
78886;DHT22;68269;52.514;5.722;2023-04-01T07:07:33;11.10;73.00
78886;DHT22;68269;52.514;5.722;2023-04-01T07:10:13;11.10;73.00
78886;DHT22;68269;52.514;5.722;2023-04-01T07:13:05;11.10;73.00
78886;DHT22;68269;52.514;5.722;2023-04-01T07:16:15;11.10;73.00
78886;DHT22;68269;52.514;5.722;2023-04-01T07:18:49;11.20;72.90
78886;DHT22;68269;52.514;5.722;2023-04-01T07:21:30;11.10;73.00
78886;DHT22;68269;52.514;5.722;2023-04-01T07:24:19;11.10;73.00
78886;DHT22;68269;52.514;5.722;2023-04-01T07:27:01;11.20;73.00
78886;DHT22;68269;52.514;5.722;2023-04-01T07:29:33;11.20;73.00
78886;DHT22;68269;52.514;5.722;2023-04-01T07:32:21;11.20;73.00
78886;DHT22;68269;52.514;5.722;2023-04-01T07:34:59;11.20;73.10
78886;DHT22;68269;52.514;5.722;2023-04-01T07:37:39;11.30;73.10
78886;DHT22;68269;52.514;5.722;2023-04-01T07:40:21;11.30;73.10
78886;DHT22;68269;52.514;5.722;2023-04-01T07:43:03;11.30;73.10
78886;DHT22;68269;52.514;5.722;2023-04-01T07:45:43;11.30;73.20
78886;DHT22;68269;52.514;5.722;2023-04-01T07:48:21;11.40;73.20
78886;DHT22;68269;52.514;5.722;2023-04-01T07:50:56;11.40;73.20
78886;DHT22;68269;52.514;5.722;2023-04-01T07:53:36;11.40;73.10
78886;DHT22;68269;52.514;5.722;2023-04-01T07:56:08;11.50;73.20
78886;DHT22;68269;52.514;5.722;2023-04-01T07:58:52;11.50;73.10
78886;DHT22;68269;52.514;5.722;2023-04-01T08:01:47;11.50;73.20
78886;DHT22;68269;52.514;5.722;2023-04-01T08:04:36;11.50;73.20
78886;DHT22;68269;52.514;5.722;2023-04-01T08:07:14;11.50;73.20
78886;DHT22;68269;52.514;5.722;2023-04-01T08:10:12;11.50;73.20
78886;DHT22;68269;52.514;5.722;2023-04-01T08:13:08;11.50;73.20
78886;DHT22;68269;52.514;5.722;2023-04-01T08:16:05;11.50;73.20
78886;DHT22;68269;52.514;5.722;2023-04-01T08:18:49;11.60;73.20
78886;DHT22;68269;52.514;5.722;2023-04-01T08:21:25;11.60;73.20
78886;DHT22;68269;52.514;5.722;2023-04-01T08:23:58;11.70;73.20
78886;DHT22;68269;52.514;5.722;2023-04-01T08:26:35;11.70;73.20
78886;DHT22;68269;52.514;5.722;2023-04-01T08:29:10;11.70;73.30
78886;DHT22;68269;52.514;5.722;2023-04-01T08:31:47;11.70;73.30
78886;DHT22;68269;52.514;5.722;2023-04-01T08:34:21;11.70;73.30
78886;DHT22;68269;52.514;5.722;2023-04-01T08:36:58;11.70;73.30
78886;DHT22;68269;52.514;5.722;2023-04-01T08:39:30;11.70;73.30
78886;DHT22;68269;52.514;5.722;2023-04-01T08:45:21;11.80;73.40
78886;DHT22;68269;52.514;5.722;2023-04-01T08:48:11;11.80;73.40
78886;DHT22;68269;52.514;5.722;2023-04-01T08:50:56;11.90;73.40
78886;DHT22;68269;52.514;5.722;2023-04-01T08:56:29;11.90;73.40
78886;DHT22;68269;52.514;5.722;2023-04-01T08:59:26;11.90;73.40
78886;DHT22;68269;52.514;5.722;2023-04-01T09:05:36;12.00;73.40
78886;DHT22;68269;52.514;5.722;2023-04-01T09:08:18;12.00;73.40
78886;DHT22;68269;52.514;5.722;2023-04-01T09:11:06;12.00;73.40
78886;DHT22;68269;52.514;5.722;2023-04-01T09:17:42;12.00;73.40
78886;DHT22;68269;52.514;5.722;2023-04-01T09:23:41;12.00;73.40
78886;DHT22;68269;52.514;5.722;2023-04-01T09:26:25;11.90;73.40
78886;DHT22;68269;52.514;5.722;2023-04-01T09:29:05;11.90;73.50
78886;DHT22;68269;52.514;5.722;2023-04-01T09:31:58;12.00;73.50
78886;DHT22;68269;52.514;5.722;2023-04-01T09:34:53;11.90;73.50
78886;DHT22;68269;52.514;5.722;2023-04-01T09:37:35;11.90;73.50
78886;DHT22;68269;52.514;5.722;2023-04-01T09:40:18;11.90;73.50
78886;DHT22;68269;52.514;5.722;2023-04-01T09:43:20;11.90;73.50
78886;DHT22;68269;52.514;5.722;2023-04-01T09:46:11;11.90;73.50
78886;DHT22;68269;52.514;5.722;2023-04-01T09:49:07;11.90;73.50
78886;DHT22;68269;52.514;5.722;2023-04-01T09:51:53;11.90;73.50
78886;DHT22;68269;52.514;5.722;2023-04-01T09:54:42;11.80;73.50
78886;DHT22;68269;52.514;5.722;2023-04-01T09:57:39;11.80;73.50
78886;DHT22;68269;52.514;5.722;2023-04-01T10:00:45;11.80;73.50
78886;DHT22;68269;52.514;5.722;2023-04-01T10:10:02;11.80;73.50
78886;DHT22;68269;52.514;5.722;2023-04-01T10:12:55;11.70;73.50
78886;DHT22;68269;52.514;5.722;2023-04-01T10:15:53;11.70;73.40
78886;DHT22;68269;52.514;5.722;2023-04-01T10:18:59;11.70;73.50
78886;DHT22;68269;52.514;5.722;2023-04-01T10:21:53;11.70;73.50
78886;DHT22;68269;52.514;5.722;2023-04-01T10:27:38;11.70;73.50
78886;DHT22;68269;52.514;5.722;2023-04-01T10:30:51;11.70;73.50
78886;DHT22;68269;52.514;5.722;2023-04-01T10:34:03;11.70;73.50
78886;DHT22;68269;52.514;5.722;2023-04-01T10:36:52;11.70;73.50
78886;DHT22;68269;52.514;5.722;2023-04-01T10:40:02;11.70;73.50
78886;DHT22;68269;52.514;5.722;2023-04-01T10:43:36;11.70;73.40
78886;DHT22;68269;52.514;5.722;2023-04-01T11:03:14;11.80;73.40
78886;DHT22;68269;52.514;5.722;2023-04-01T11:09:50;11.70;73.40
78886;DHT22;68269;52.514;5.722;2023-04-01T11:13:10;11.80;73.40
78886;DHT22;68269;52.514;5.722;2023-04-01T11:22:24;11.90;73.40
78886;DHT22;68269;52.514;5.722;2023-04-01T11:31:47;11.90;73.40
78886;DHT22;68269;52.514;5.722;2023-04-01T11:34:37;11.90;73.50
78886;DHT22;68269;52.514;5.722;2023-04-01T11:37:14;11.90;73.50
78886;DHT22;68269;52.514;5.722;2023-04-01T11:40:14;11.90;73.50
78886;DHT22;68269;52.514;5.722;2023-04-01T11:43:15;11.90;73.40
78886;DHT22;68269;52.514;5.722;2023-04-01T11:46:10;12.00;73.40
78886;DHT22;68269;52.514;5.722;2023-04-01T11:48:55;12.00;73.40
78886;DHT22;68269;52.514;5.722;2023-04-01T11:51:38;12.00;73.40
78886;DHT22;68269;52.514;5.722;2023-04-01T11:54:26;12.10;73.50
78886;DHT22;68269;52.514;5.722;2023-04-01T11:57:07;12.10;73.60
78886;DHT22;68269;52.514;5.722;2023-04-01T12:00:05;12.10;73.60
78886;DHT22;68269;52.514;5.722;2023-04-01T12:03:10;12.10;73.60
78886;DHT22;68269;52.514;5.722;2023-04-01T12:05:48;12.20;73.60
78886;DHT22;68269;52.514;5.722;2023-04-01T12:08:34;12.20;73.60
78886;DHT22;68269;52.514;5.722;2023-04-01T12:11:11;12.30;73.70
78886;DHT22;68269;52.514;5.722;2023-04-01T12:13:49;12.40;73.70
78886;DHT22;68269;52.514;5.722;2023-04-01T12:16:34;12.50;73.70
78886;DHT22;68269;52.514;5.722;2023-04-01T12:19:14;12.50;73.70
78886;DHT22;68269;52.514;5.722;2023-04-01T12:21:52;12.60;73.70
78886;DHT22;68269;52.514;5.722;2023-04-01T12:24:48;12.70;73.60
78886;DHT22;68269;52.514;5.722;2023-04-01T12:27:32;12.70;73.60
78886;DHT22;68269;52.514;5.722;2023-04-01T12:33:18;12.80;73.70
78886;DHT22;68269;52.514;5.722;2023-04-01T12:36:00;12.80;73.70
78886;DHT22;68269;52.514;5.722;2023-04-01T12:38:43;12.70;73.70
78886;DHT22;68269;52.514;5.722;2023-04-01T12:41:24;12.80;73.80
78886;DHT22;68269;52.514;5.722;2023-04-01T12:44:17;12.80;73.80
78886;DHT22;68269;52.514;5.722;2023-04-01T12:47:00;12.80;73.80
78886;DHT22;68269;52.514;5.722;2023-04-01T12:49:45;12.80;73.80
78886;DHT22;68269;52.514;5.722;2023-04-01T12:52:23;12.80;73.80
78886;DHT22;68269;52.514;5.722;2023-04-01T12:55:22;12.70;73.80
78886;DHT22;68269;52.514;5.722;2023-04-01T12:58:30;12.70;73.90
78886;DHT22;68269;52.514;5.722;2023-04-01T13:01:19;12.70;73.80
78886;DHT22;68269;52.514;5.722;2023-04-01T13:04:26;12.60;73.90
78886;DHT22;68269;52.514;5.722;2023-04-01T13:07:16;12.60;73.90
78886;DHT22;68269;52.514;5.722;2023-04-01T13:09:56;12.50;73.90
78886;DHT22;68269;52.514;5.722;2023-04-01T13:15:41;12.50;73.80
78886;DHT22;68269;52.514;5.722;2023-04-01T13:18:31;12.50;73.80
78886;DHT22;68269;52.514;5.722;2023-04-01T13:21:08;12.50;73.80
78886;DHT22;68269;52.514;5.722;2023-04-01T13:23:52;12.50;73.80
78886;DHT22;68269;52.514;5.722;2023-04-01T13:26:29;12.50;73.80
78886;DHT22;68269;52.514;5.722;2023-04-01T13:29:04;12.50;73.80
78886;DHT22;68269;52.514;5.722;2023-04-01T13:31:48;12.50;73.80
78886;DHT22;68269;52.514;5.722;2023-04-01T13:34:30;12.40;73.80
78886;DHT22;68269;52.514;5.722;2023-04-01T13:37:15;12.30;73.80
78886;DHT22;68269;52.514;5.722;2023-04-01T13:40:04;12.30;73.70
78886;DHT22;68269;52.514;5.722;2023-04-01T13:42:43;12.30;73.80
78886;DHT22;68269;52.514;5.722;2023-04-01T13:45:16;12.30;73.70
78886;DHT22;68269;52.514;5.722;2023-04-01T13:48:15;12.20;73.70
78886;DHT22;68269;52.514;5.722;2023-04-01T13:54:15;12.20;73.70
78886;DHT22;68269;52.514;5.722;2023-04-01T13:56:54;12.10;73.70
78886;DHT22;68269;52.514;5.722;2023-04-01T14:03:11;12.10;73.70
78886;DHT22;68269;52.514;5.722;2023-04-01T14:06:01;12.10;73.60
78886;DHT22;68269;52.514;5.722;2023-04-01T14:08:42;12.10;73.60
78886;DHT22;68269;52.514;5.722;2023-04-01T14:11:21;12.10;73.60
78886;DHT22;68269;52.514;5.722;2023-04-01T14:14:01;12.10;73.60
78886;DHT22;68269;52.514;5.722;2023-04-01T14:17:00;12.00;73.60
78886;DHT22;68269;52.514;5.722;2023-04-01T14:19:53;12.00;73.60
78886;DHT22;68269;52.514;5.722;2023-04-01T14:22:34;12.00;73.60
78886;DHT22;68269;52.514;5.722;2023-04-01T14:28:16;12.00;73.60
78886;DHT22;68269;52.514;5.722;2023-04-01T14:33:47;11.90;73.50
78886;DHT22;68269;52.514;5.722;2023-04-01T14:36:35;11.90;73.50
78886;DHT22;68269;52.514;5.722;2023-04-01T14:42:41;11.90;73.40
78886;DHT22;68269;52.514;5.722;2023-04-01T14:48:28;11.90;73.50
78886;DHT22;68269;52.514;5.722;2023-04-01T14:51:09;11.90;73.50
78886;DHT22;68269;52.514;5.722;2023-04-01T14:53:43;11.80;73.50
78886;DHT22;68269;52.514;5.722;2023-04-01T14:56:39;11.80;73.50
78886;DHT22;68269;52.514;5.722;2023-04-01T14:59:15;11.80;73.50
78886;DHT22;68269;52.514;5.722;2023-04-01T15:01:50;11.70;73.50
78886;DHT22;68269;52.514;5.722;2023-04-01T15:04:41;11.70;73.50
78886;DHT22;68269;52.514;5.722;2023-04-01T15:10:12;11.70;73.50
78886;DHT22;68269;52.514;5.722;2023-04-01T15:12:52;11.70;73.50
78886;DHT22;68269;52.514;5.722;2023-04-01T15:15:36;11.70;73.50
78886;DHT22;68269;52.514;5.722;2023-04-01T15:18:15;11.70;73.50
78886;DHT22;68269;52.514;5.722;2023-04-01T15:23:57;11.70;73.40
78886;DHT22;68269;52.514;5.722;2023-04-01T15:26:42;11.60;73.50
78886;DHT22;68269;52.514;5.722;2023-04-01T15:32:19;11.50;73.50
78886;DHT22;68269;52.514;5.722;2023-04-01T15:34:54;11.50;73.40
78886;DHT22;68269;52.514;5.722;2023-04-01T15:37:35;11.50;73.40
78886;DHT22;68269;52.514;5.722;2023-04-01T15:40:19;11.50;73.40
78886;DHT22;68269;52.514;5.722;2023-04-01T15:43:06;11.40;73.40
78886;DHT22;68269;52.514;5.722;2023-04-01T15:45:47;11.40;73.40
78886;DHT22;68269;52.514;5.722;2023-04-01T15:48:40;11.40;73.40
78886;DHT22;68269;52.514;5.722;2023-04-01T15:51:26;11.40;73.40
78886;DHT22;68269;52.514;5.722;2023-04-01T15:54:21;11.40;73.40
78886;DHT22;68269;52.514;5.722;2023-04-01T15:57:06;11.40;73.40
78886;DHT22;68269;52.514;5.722;2023-04-01T15:59:53;11.30;73.40
78886;DHT22;68269;52.514;5.722;2023-04-01T16:02:29;11.30;73.30
78886;DHT22;68269;52.514;5.722;2023-04-01T16:05:06;11.30;73.30
78886;DHT22;68269;52.514;5.722;2023-04-01T16:07:53;11.30;73.30
78886;DHT22;68269;52.514;5.722;2023-04-01T16:10:38;11.20;73.30
78886;DHT22;68269;52.514;5.722;2023-04-01T16:13:24;11.20;73.20
78886;DHT22;68269;52.514;5.722;2023-04-01T16:16:04;11.10;73.20
78886;DHT22;68269;52.514;5.722;2023-04-01T16:18:58;11.10;73.20
78886;DHT22;68269;52.514;5.722;2023-04-01T16:21:43;11.10;73.20
78886;DHT22;68269;52.514;5.722;2023-04-01T16:24:19;11.10;73.20
78886;DHT22;68269;52.514;5.722;2023-04-01T16:26:55;11.10;73.20
78886;DHT22;68269;52.514;5.722;2023-04-01T16:29:32;11.10;73.20
78886;DHT22;68269;52.514;5.722;2023-04-01T16:32:17;11.10;73.20
78886;DHT22;68269;52.514;5.722;2023-04-01T16:34:56;11.10;73.20
78886;DHT22;68269;52.514;5.722;2023-04-01T16:37:36;11.10;73.20
78886;DHT22;68269;52.514;5.722;2023-04-01T16:40:15;11.10;73.20
78886;DHT22;68269;52.514;5.722;2023-04-01T16:42:49;11.10;73.20
78886;DHT22;68269;52.514;5.722;2023-04-01T16:45:26;11.00;73.20
78886;DHT22;68269;52.514;5.722;2023-04-01T16:48:06;11.00;73.10
78886;DHT22;68269;52.514;5.722;2023-04-01T16:50:44;11.00;73.10
78886;DHT22;68269;52.514;5.722;2023-04-01T16:53:21;11.00;73.10
78886;DHT22;68269;52.514;5.722;2023-04-01T16:55:55;11.00;73.00
78886;DHT22;68269;52.514;5.722;2023-04-01T16:58:34;10.90;73.10
78886;DHT22;68269;52.514;5.722;2023-04-01T17:01:07;10.90;73.00
78886;DHT22;68269;52.514;5.722;2023-04-01T17:03:40;10.90;73.00
78886;DHT22;68269;52.514;5.722;2023-04-01T17:06:26;10.90;73.10
78886;DHT22;68269;52.514;5.722;2023-04-01T17:09:21;10.80;73.00
78886;DHT22;68269;52.514;5.722;2023-04-01T17:11:57;10.80;73.00
78886;DHT22;68269;52.514;5.722;2023-04-01T17:14:32;10.80;73.00
78886;DHT22;68269;52.514;5.722;2023-04-01T17:17:27;10.80;73.00
78886;DHT22;68269;52.514;5.722;2023-04-01T17:20:19;10.80;73.00
78886;DHT22;68269;52.514;5.722;2023-04-01T17:22:55;10.80;73.00
78886;DHT22;68269;52.514;5.722;2023-04-01T17:25:57;10.70;73.00
78886;DHT22;68269;52.514;5.722;2023-04-01T17:28:41;10.70;73.00
78886;DHT22;68269;52.514;5.722;2023-04-01T17:31:23;10.70;73.00
78886;DHT22;68269;52.514;5.722;2023-04-01T17:34:05;10.60;73.00
78886;DHT22;68269;52.514;5.722;2023-04-01T17:36:47;10.60;73.00
78886;DHT22;68269;52.514;5.722;2023-04-01T17:39:37;10.60;73.00
78886;DHT22;68269;52.514;5.722;2023-04-01T17:42:15;10.60;73.00
78886;DHT22;68269;52.514;5.722;2023-04-01T17:44:52;10.60;73.00
78886;DHT22;68269;52.514;5.722;2023-04-01T17:47:34;10.60;73.00
78886;DHT22;68269;52.514;5.722;2023-04-01T17:50:24;10.60;73.00
78886;DHT22;68269;52.514;5.722;2023-04-01T17:53:17;10.60;72.90
78886;DHT22;68269;52.514;5.722;2023-04-01T17:56:08;10.50;72.90
78886;DHT22;68269;52.514;5.722;2023-04-01T17:58:45;10.50;72.90
78886;DHT22;68269;52.514;5.722;2023-04-01T18:01:28;10.50;72.90
78886;DHT22;68269;52.514;5.722;2023-04-01T18:04:15;10.40;72.90
78886;DHT22;68269;52.514;5.722;2023-04-01T18:07:04;10.40;72.80
78886;DHT22;68269;52.514;5.722;2023-04-01T18:09:45;10.30;72.90
78886;DHT22;68269;52.514;5.722;2023-04-01T18:12:23;10.30;72.90
78886;DHT22;68269;52.514;5.722;2023-04-01T18:15:06;10.30;72.80
78886;DHT22;68269;52.514;5.722;2023-04-01T18:17:50;10.20;72.80
78886;DHT22;68269;52.514;5.722;2023-04-01T18:20:32;10.30;72.80
78886;DHT22;68269;52.514;5.722;2023-04-01T18:23:06;10.20;72.70
78886;DHT22;68269;52.514;5.722;2023-04-01T18:25:43;10.20;72.80
78886;DHT22;68269;52.514;5.722;2023-04-01T18:28:26;10.20;72.80
78886;DHT22;68269;52.514;5.722;2023-04-01T18:31:10;10.10;72.80